Terminal Aerodrome Forecast
Issued by NWS

Home | Current Version | Previous Version | Text Only | Print | Product List | Glossary On
Versions: 1 2 3 4 5 6 7 8 9 10 11 12 13 14 15 16 17 18 19 20 21 22 23
612
FTUS46 KSEW 261120
TAFSEA
TAF
KSEA 261120Z 2612/2718 20010KT P6SM BKN010 BKN200
      TEMPO 2612/2615 SCT010 BKN200
     FM261800 22010KT P6SM SCT015 BKN200
     FM262100 22007KT P6SM SCT040 BKN200=

USA.gov is the U.S. government's official web portal to all federal, state and local government web resources and services.